Time;durP1;ratioP1;P1;durP2;ratioP2;P2;SDS_P1;SDS_P2;PMS_P1;PMS_P2;Temp;Humidity;BMP_temperature;BMP_pressure;BME280_temperature;BME280_humidity;BME280_pressure;Samples;Min_cycle;Max_cycle;Signal;HPM_P1;HPM_P2
2021/10/03 00:02:17;;;;;;;1.95;1.60;;;;;;;18.69;76.37;99285.94;10488391;28;20400;-82
2021/10/03 00:07:19;;;;;;;2.55;2.20;;;;;;;17.94;76.27;99145.91;10506157;28;20036;-82
2021/10/03 00:12:20;;;;;;;1.55;1.45;;;;;;;19.06;75.01;99265.28;10505602;28;20540;-82
2021/10/03 00:17:20;;;;;;;5.80;2.33;;;;;;;18.94;75.30;99279.41;10504291;28;20123;-82
2021/10/03 00:22:21;;;;;;;2.00;1.50;;;;;;;18.84;75.45;99289.69;10504622;28;20040;-82
2021/10/03 00:27:22;;;;;;;2.55;1.48;;;;;;;19.05;74.53;99269.94;10486245;28;20464;-83
2021/10/03 00:32:22;;;;;;;7.88;2.63;;;;;;;18.90;74.48;99291.25;10504603;28;20040;-82
2021/10/03 00:37:23;;;;;;;1.83;1.70;;;;;;;18.91;74.41;99303.84;10504828;28;20043;-83
2021/10/03 00:42:23;;;;;;;2.30;2.05;;;;;;;18.88;74.20;99309.91;10504736;28;20467;-83
2021/10/03 00:47:23;;;;;;;3.83;1.65;;;;;;;18.68;74.27;99303.50;10502780;28;20059;-83
2021/10/03 00:52:24;;;;;;;6.78;1.60;;;;;;;18.54;73.92;99305.31;10503927;28;20037;-83
2021/10/03 00:57:25;;;;;;;4.05;1.63;;;;;;;18.35;74.07;99275.88;10484292;28;20075;-82
2021/10/03 01:02:25;;;;;;;2.15;1.55;;;;;;;18.62;74.02;99326.59;10502540;28;20037;-82
2021/10/03 01:07:25;;;;;;;2.50;1.70;;;;;;;18.39;73.65;99284.34;10502344;28;20039;-82
2021/10/03 01:12:26;;;;;;;2.35;1.83;;;;;;;18.65;74.07;99350.69;10484519;28;20462;-82
2021/10/03 01:17:27;;;;;;;5.55;1.50;;;;;;;18.29;74.26;99352.94;10502081;28;20032;-82
2021/10/03 01:22:27;;;;;;;4.07;2.17;;;;;;;18.06;74.69;99354.47;10483457;28;20387;-83
2021/10/03 01:27:27;;;;;;;5.28;1.92;;;;;;;17.71;75.33;99377.38;10484350;28;20090;-83
2021/10/03 01:32:28;;;;;;;4.57;2.33;;;;;;;17.73;74.91;99381.47;10502320;28;20044;-82
2021/10/03 01:37:28;;;;;;;9.02;1.67;;;;;;;16.98;75.07;99326.81;10501091;28;20033;-82
2021/10/03 01:42:29;;;;;;;8.18;2.60;;;;;;;17.04;74.52;99342.13;10484224;28;20408;-82
2021/10/03 01:47:29;;;;;;;8.82;2.63;;;;;;;17.22;74.62;99378.97;10487661;28;20071;-83
2021/10/03 01:52:30;;;;;;;13.90;3.47;;;;;;;17.10;74.15;99382.03;10505300;28;20044;-83
2021/10/03 01:57:31;;;;;;;8.35;1.75;;;;;;;16.90;74.54;99352.78;10507069;28;20044;-82
2021/10/03 02:02:31;;;;;;;15.00;4.38;;;;;;;16.92;74.95;99364.28;10504003;28;20040;-82
2021/10/03 02:07:33;;;;;;;5.25;1.63;;;;;;;16.89;75.10;99381.25;10502797;28;20510;-82
2021/10/03 02:12:33;;;;;;;8.45;2.42;;;;;;;16.87;74.66;99369.75;10501168;28;20181;-81
2021/10/03 02:17:34;;;;;;;9.00;2.75;;;;;;;16.79;75.37;99361.31;10500395;28;20056;-82
2021/10/03 02:22:34;;;;;;;9.25;3.03;;;;;;;16.89;75.04;99369.50;10482340;28;20067;-82
2021/10/03 02:27:34;;;;;;;4.63;2.58;;;;;;;16.59;74.66;99307.44;10481248;28;20120;-82
2021/10/03 02:32:35;;;;;;;8.23;2.88;;;;;;;16.55;74.52;99289.97;10499837;28;20488;-81
2021/10/03 02:37:35;;;;;;;9.48;2.10;;;;;;;16.93;74.55;99368.66;10481746;28;20036;-82
2021/10/03 02:42:36;;;;;;;6.13;2.90;;;;;;;17.19;74.36;99380.34;10499175;28;20032;-82
2021/10/03 02:47:36;;;;;;;12.25;3.20;;;;;;;17.11;74.65;99396.53;10481494;28;20460;-82
2021/10/03 02:52:38;;;;;;;9.52;2.70;;;;;;;17.04;74.45;99385.03;10499101;28;20067;-82
2021/10/03 02:57:38;;;;;;;10.00;2.30;;;;;;;16.89;74.51;99396.84;10481293;28;20047;-82
2021/10/03 03:02:39;;;;;;;12.57;3.45;;;;;;;16.86;74.14;99373.59;10498665;28;20055;-81
2021/10/03 03:07:39;;;;;;;6.85;1.85;;;;;;;16.18;74.43;99283.75;10497449;28;20119;-81
2021/10/03 03:12:39;;;;;;;15.73;3.22;;;;;;;16.68;75.04;99396.00;10480249;28;20032;-81
2021/10/03 03:17:40;;;;;;;12.25;2.72;;;;;;;16.08;74.76;99312.94;10498864;28;20074;-81
2021/10/03 03:22:40;;;;;;;8.27;1.98;;;;;;;16.10;74.26;99379.03;10498465;28;20115;-81
2021/10/03 03:27:41;;;;;;;7.45;2.55;;;;;;;16.21;74.29;99427.16;10497543;28;20468;-81
2021/10/03 03:32:41;;;;;;;5.72;1.90;;;;;;;15.94;74.00;99397.31;10497839;28;20507;-80
2021/10/03 03:37:42;;;;;;;2.75;1.27;;;;;;;16.25;72.54;99420.03;10481799;28;20036;-81
2021/10/03 03:42:42;;;;;;;5.20;1.52;;;;;;;16.02;72.09;99389.41;10481061;28;20436;-80
2021/10/03 03:47:42;;;;;;;3.90;1.52;;;;;;;16.04;71.31;99373.56;10480729;28;20456;-81
2021/10/03 03:52:43;;;;;;;3.63;1.60;;;;;;;16.00;71.44;99377.13;10479876;28;20068;-81
2021/10/03 03:57:43;;;;;;;4.93;2.00;;;;;;;16.05;71.75;99374.41;10495615;28;20127;-81
2021/10/03 04:02:44;;;;;;;11.75;2.45;;;;;;;15.90;71.83;99372.47;10497250;28;20526;-81
2021/10/03 04:07:44;;;;;;;5.35;1.25;;;;;;;15.94;72.37;99402.78;10497934;28;20032;-81
2021/10/03 04:12:44;;;;;;;2.90;1.55;;;;;;;15.94;71.70;99406.31;10479399;28;20044;-81
2021/10/03 04:17:45;;;;;;;2.70;2.35;;;;;;;15.88;71.97;99418.31;10499202;28;20033;-81
2021/10/03 04:22:45;;;;;;;7.90;1.90;;;;;;;15.89;71.89;99414.50;10504536;28;20072;-81
2021/10/03 04:27:46;;;;;;;6.63;2.25;;;;;;;15.40;71.42;99345.81;10503809;28;20032;-82
2021/10/03 04:32:46;;;;;;;6.70;1.27;;;;;;;15.83;71.73;99418.31;10487084;28;20395;-81
2021/10/03 04:37:47;;;;;;;5.68;1.60;;;;;;;15.93;71.67;99421.06;10504246;28;20033;-82
2021/10/03 04:42:47;;;;;;;6.70;2.38;;;;;;;15.86;71.71;99436.88;10503755;28;20032;-82
2021/10/03 04:47:48;;;;;;;1.73;1.25;;;;;;;15.78;71.93;99421.81;10503864;28;20055;-82
2021/10/03 04:52:48;;;;;;;15.88;1.90;;;;;;;15.76;72.26;99423.19;10504925;28;20036;-82
2021/10/03 04:57:49;;;;;;;10.43;2.60;;;;;;;15.47;72.91;99428.22;10484990;28;20106;-82
2021/10/03 05:02:49;;;;;;;6.22;1.30;;;;;;;15.49;72.60;99423.31;10503709;28;20073;-81
2021/10/03 05:07:50;;;;;;;10.95;2.05;;;;;;;15.83;72.17;99462.00;10503135;28;20590;-82
2021/10/03 05:12:50;;;;;;;5.32;1.88;;;;;;;15.55;71.93;99419.53;10502701;28;20025;-81
2021/10/03 05:17:50;;;;;;;1.60;1.42;;;;;;;15.59;72.84;99456.09;10502445;28;20056;-82
2021/10/03 05:22:51;;;;;;;9.38;2.25;;;;;;;15.54;72.42;99426.91;10502449;28;20044;-81
2021/10/03 05:27:51;;;;;;;7.15;2.35;;;;;;;15.85;72.36;99458.97;10500160;28;20036;-81
2021/10/03 05:32:52;;;;;;;9.68;2.75;;;;;;;15.84;72.28;99463.63;10501842;28;20543;-82
2021/10/03 05:37:53;;;;;;;9.90;3.03;;;;;;;15.79;72.65;99474.50;10501453;28;20051;-81
2021/10/03 05:42:53;;;;;;;3.22;2.65;;;;;;;15.90;72.28;99457.09;10500890;28;20068;-82
2021/10/03 05:47:54;;;;;;;8.07;2.92;;;;;;;15.59;72.47;99418.72;10501850;28;20388;-81
2021/10/03 05:52:54;;;;;;;10.48;3.00;;;;;;;14.63;72.59;99260.97;10500781;28;20119;-81
2021/10/03 05:57:54;;;;;;;3.80;2.38;;;;;;;15.84;72.71;99477.25;10500109;28;20040;-82
2021/10/03 06:02:55;;;;;;;9.10;2.78;;;;;;;15.71;72.77;99475.03;10501571;28;20072;-82
2021/10/03 06:07:55;;;;;;;8.32;2.58;;;;;;;15.69;72.87;99494.38;10501177;28;20127;-82
2021/10/03 06:12:56;;;;;;;11.48;2.40;;;;;;;15.18;73.08;99408.72;10500983;28;20033;-82
2021/10/03 06:17:56;;;;;;;8.65;3.92;;;;;;;15.60;73.39;99504.13;10499879;28;20121;-82
2021/10/03 06:22:57;;;;;;;4.15;2.70;;;;;;;15.45;73.43;99495.88;10500719;28;20037;-82
2021/10/03 06:27:57;;;;;;;7.07;3.33;;;;;;;15.35;74.00;99499.38;10499705;28;20032;-82
2021/10/03 06:33:00;;;;;;;12.43;2.15;;;;;;;14.96;74.15;99452.47;10483161;28;20029;-82
2021/10/03 06:38:01;;;;;;;5.10;3.25;;;;;;;15.07;74.58;99490.44;10500223;28;20033;-82
2021/10/03 06:43:01;;;;;;;10.52;3.03;;;;;;;15.57;73.85;99538.25;10482984;28;20464;-82
2021/10/03 06:48:01;;;;;;;6.72;2.60;;;;;;;15.64;73.69;99538.00;10499989;28;20024;-81
2021/10/03 06:53:02;;;;;;;3.70;2.38;;;;;;;15.06;73.45;99469.72;10499717;28;20071;-82
2021/10/03 06:58:03;;;;;;;4.82;3.08;;;;;;;15.64;73.56;99556.28;10498613;28;20434;-81
2021/10/03 07:03:04;;;;;;;5.30;3.20;;;;;;;15.49;73.67;99536.00;10499497;28;20039;-82
2021/10/03 07:08:05;;;;;;;5.50;3.47;;;;;;;15.74;73.25;99551.75;10481377;28;20029;-82
2021/10/03 07:13:06;;;;;;;6.82;3.42;;;;;;;15.65;72.92;99526.00;10481604;28;20035;-82
2021/10/03 07:18:06;;;;;;;8.88;3.78;;;;;;;15.93;72.90;99564.94;10481581;28;20040;-82
2021/10/03 07:23:06;;;;;;;12.00;4.22;;;;;;;15.85;72.71;99547.13;10480756;28;20068;-82
2021/10/03 07:28:07;;;;;;;13.10;3.10;;;;;;;15.91;73.20;99564.38;10498031;28;20064;-82
2021/10/03 07:33:08;;;;;;;6.15;2.95;;;;;;;16.07;72.65;99566.09;10464173;28;20039;-82
2021/10/03 07:38:08;;;;;;;8.55;3.90;;;;;;;16.19;72.33;99572.16;10499713;28;20040;-82
2021/10/03 07:43:09;;;;;;;8.38;3.45;;;;;;;15.79;72.11;99512.72;10481279;28;20060;-82
2021/10/03 07:48:09;;;;;;;4.70;4.03;;;;;;;16.29;72.10;99593.22;10497474;28;20113;-82
2021/10/03 07:53:10;;;;;;;4.30;2.88;;;;;;;16.28;71.90;99597.06;10500546;28;20111;-81
2021/10/03 07:58:10;;;;;;;13.73;3.33;;;;;;;16.30;72.03;99603.06;10504338;28;20498;-80
2021/10/03 08:03:10;;;;;;;3.08;2.28;;;;;;;16.31;72.03;99606.63;10486724;28;20068;-81
2021/10/03 08:08:11;;;;;;;7.22;2.08;;;;;;;16.16;71.57;99596.44;10504375;28;20021;-81
2021/10/03 08:13:12;;;;;;;1.60;1.50;;;;;;;16.11;71.48;99599.97;10505124;28;20040;-84
2021/10/03 08:18:12;;;;;;;2.22;1.27;;;;;;;16.00;71.17;99607.28;10492398;28;20487;-82
2021/10/03 08:23:13;;;;;;;1.52;1.42;;;;;;;16.00;71.47;99611.94;10506039;28;20039;-82
2021/10/03 08:28:13;;;;;;;1.48;1.27;;;;;;;15.94;71.75;99608.34;10505252;28;20124;-82
2021/10/03 08:33:13;;;;;;;11.32;2.13;;;;;;;16.03;71.64;99611.41;10444919;28;20139;-82
2021/10/03 08:38:14;;;;;;;2.83;1.70;;;;;;;15.88;71.74;99595.75;10468318;28;20029;-82
2021/10/03 08:43:14;;;;;;;1.63;1.52;;;;;;;15.94;71.56;99602.06;10444835;28;20045;-81
2021/10/03 08:48:15;;;;;;;1.70;1.33;;;;;;;15.75;71.81;99561.56;10449653;28;20060;-80
2021/10/03 08:53:16;;;;;;;1.05;1.05;;;;;;;15.77;71.53;99542.19;10446287;28;20120;-81
2021/10/03 08:58:16;;;;;;;1.45;1.25;;;;;;;15.97;71.58;99575.06;10427838;28;20402;-81
2021/10/03 09:03:17;;;;;;;1.40;1.27;;;;;;;16.01;71.35;99586.25;10452925;28;20067;-82
2021/10/03 09:08:25;;;;;;;2.90;1.67;;;;;;;15.63;71.58;99511.78;10460276;28;20468;-81
2021/10/03 09:13:31;;;;;;;1.30;1.25;;;;;;;16.56;71.36;99644.13;10445298;28;20035;-82
2021/10/03 09:18:52;;;;;;;1.35;1.25;;;;;;;16.59;70.34;99617.13;10462746;28;20037;-82
2021/10/03 09:24:03;;;;;;;1.35;0.98;;;;;;;16.52;70.71;99641.94;10461557;28;20033;-81
2021/10/03 09:29:32;;;;;;;2.05;1.45;;;;;;;16.56;71.11;99631.31;10458160;28;20115;-81
2021/10/03 09:34:32;;;;;;;1.25;1.15;;;;;;;16.32;70.66;99589.97;10373559;28;20474;-81
2021/10/03 09:39:40;;;;;;;1.00;0.93;;;;;;;16.38;70.92;99586.16;10377044;28;20069;-81
2021/10/03 09:45:07;;;;;;;1.88;1.05;;;;;;;16.86;70.93;99657.94;10393597;28;20107;-81
2021/10/03 09:50:10;;;;;;;3.10;1.27;;;;;;;16.62;70.29;99634.88;10400814;28;20025;-81
2021/10/03 09:55:14;;;;;;;1.75;0.95;;;;;;;16.84;69.82;99679.25;10416987;28;20595;-81
2021/10/03 10:00:15;;;;;;;2.83;1.30;;;;;;;16.68;69.96;99661.94;10424778;28;20392;-82
2021/10/03 10:05:18;;;;;;;4.13;1.05;;;;;;;16.77;70.09;99670.50;10458048;28;20056;-82
2021/10/03 10:10:18;;;;;;;1.20;0.98;;;;;;;16.32;69.58;99649.25;10457942;28;20024;-82
2021/10/03 10:15:23;;;;;;;3.45;1.00;;;;;;;16.13;69.77;99606.00;10423834;28;20025;-81
2021/10/03 10:20:27;;;;;;;6.00;1.50;;;;;;;16.59;70.07;99707.31;10457607;28;20032;-81
2021/10/03 10:25:44;;;;;;;1.83;1.48;;;;;;;16.44;69.53;99688.91;10457086;28;20033;-82
2021/10/03 10:31:04;;;;;;;2.40;1.80;;;;;;;16.60;71.05;99719.06;10457050;28;20029;-81
2021/10/03 10:36:15;;;;;;;6.47;1.38;;;;;;;16.27;71.04;99663.69;10444619;28;20120;-81
2021/10/03 10:41:32;;;;;;;2.70;1.98;;;;;;;16.35;71.41;99690.50;10459115;28;20150;-81
2021/10/03 10:46:53;;;;;;;3.58;1.60;;;;;;;16.47;71.03;99766.81;10399019;28;20045;-81
2021/10/03 10:52:18;;;;;;;1.58;1.05;;;;;;;16.39;71.57;99795.44;10419286;28;20045;-81
2021/10/03 10:57:18;;;;;;;3.45;1.42;;;;;;;16.27;71.05;99783.88;10445142;28;20033;-83
2021/10/03 11:02:53;;;;;;;1.55;1.40;;;;;;;16.34;71.72;99789.16;10412323;28;20428;-81
2021/10/03 11:08:06;;;;;;;2.05;1.35;;;;;;;16.42;71.65;99799.56;10416900;28;20021;-80
2021/10/03 11:13:40;;;;;;;4.30;1.40;;;;;;;16.36;71.93;99795.97;10415106;28;20035;-82
2021/10/03 11:19:00;;;;;;;1.13;1.00;;;;;;;16.39;71.98;99816.47;10416157;28;20029;-81
2021/10/03 11:24:05;;;;;;;1.25;1.15;;;;;;;16.26;71.39;99806.81;10415664;28;20112;-83
2021/10/03 11:29:07;;;;;;;2.17;1.45;;;;;;;16.05;71.77;99811.31;10419140;28;20041;-84
2021/10/03 11:34:07;;;;;;;2.08;1.25;;;;;;;16.02;71.53;99834.50;10425265;28;20040;-80
2021/10/03 11:39:08;;;;;;;0.82;0.80;;;;;;;15.88;71.35;99814.16;10424957;28;20033;-82
2021/10/03 11:44:20;;;;;;;1.55;1.10;;;;;;;15.97;71.82;99848.09;10432664;28;20049;-82
2021/10/03 11:49:28;;;;;;;0.77;0.77;;;;;;;15.57;71.63;99856.66;10465142;28;20029;-82
2021/10/03 11:54:44;;;;;;;1.55;1.10;;;;;;;15.68;71.72;99830.34;10447273;28;20043;-82
2021/10/03 11:59:45;;;;;;;0.90;0.90;;;;;;;15.78;71.27;99877.66;10468480;28;20079;-83
2021/10/03 12:04:55;;;;;;;6.32;1.15;;;;;;;15.68;71.47;99872.09;10430096;28;20029;-81
2021/10/03 12:10:00;;;;;;;1.52;0.90;;;;;;;15.91;70.41;99894.72;10447679;28;20087;-83
2021/10/03 12:15:01;;;;;;;1.00;0.90;;;;;;;15.74;70.54;99867.53;10464151;28;20039;-84
2021/10/03 12:20:01;;;;;;;1.15;1.13;;;;;;;16.13;70.79;99916.53;10463496;28;20519;-82
2021/10/03 12:25:02;;;;;;;1.35;0.75;;;;;;;15.83;70.84;99852.34;10462774;28;20037;-81
2021/10/03 12:30:04;;;;;;;1.27;1.13;;;;;;;15.94;70.47;99880.56;10461092;28;20040;-82
2021/10/03 12:35:05;;;;;;;1.80;1.23;;;;;;;16.07;70.38;99923.84;10463698;28;20047;-82
2021/10/03 12:40:08;;;;;;;2.13;1.25;;;;;;;16.14;70.46;99978.25;10465513;28;20040;-81
2021/10/03 12:45:08;;;;;;;0.88;0.88;;;;;;;16.07;70.23;99972.16;10475966;28;20488;-84
2021/10/03 12:50:09;;;;;;;0.93;0.93;;;;;;;15.89;70.76;99948.75;10483800;28;20207;-83
2021/10/03 12:55:10;;;;;;;1.50;1.35;;;;;;;15.95;70.64;99940.38;10452095;28;20033;-82
2021/10/03 13:00:11;;;;;;;1.65;1.55;;;;;;;16.10;71.22;99941.63;10467752;28;20052;-83
2021/10/03 13:05:11;;;;;;;1.52;1.42;;;;;;;16.27;71.25;99954.09;10461913;28;20068;-82
2021/10/03 13:10:12;;;;;;;3.33;1.90;;;;;;;15.95;71.24;99914.97;10460628;28;20552;-81
2021/10/03 13:15:12;;;;;;;1.83;1.63;;;;;;;16.36;71.46;99970.84;10427752;28;20033;-82
2021/10/03 13:20:12;;;;;;;5.38;2.17;;;;;;;16.45;71.40;99995.78;10447803;28;20353;-81
2021/10/03 13:25:13;;;;;;;0.93;0.93;;;;;;;16.54;70.31;99990.69;10459382;28;20364;-81
2021/10/03 13:30:13;;;;;;;1.50;1.02;;;;;;;16.49;69.62;100025.06;10443489;28;20063;-81
2021/10/03 13:35:14;;;;;;;3.50;1.05;;;;;;;16.40;69.45;100021.16;10443126;28;20407;-81
2021/10/03 13:40:14;;;;;;;3.40;1.05;;;;;;;16.57;69.42;100042.91;10443427;28;20033;-83
2021/10/03 13:45:14;;;;;;;1.77;1.48;;;;;;;16.45;70.44;100044.97;10447176;28;20078;-81
2021/10/03 13:50:15;;;;;;;4.57;1.20;;;;;;;16.48;69.55;100075.34;10461359;28;20099;-82
2021/10/03 13:55:18;;;;;;;3.25;1.00;;;;;;;16.73;69.88;100082.16;10417874;28;20045;-85
2021/10/03 14:00:18;;;;;;;3.65;1.25;;;;;;;16.60;70.09;100096.25;10412692;28;20017;-84
2021/10/03 14:05:19;;;;;;;2.17;1.20;;;;;;;16.40;69.75;100047.66;10428792;28;20068;-84
2021/10/03 14:10:20;;;;;;;1.60;1.08;;;;;;;16.58;70.98;100082.00;10428816;28;20029;-84
2021/10/03 14:15:20;;;;;;;2.17;1.48;;;;;;;16.77;70.08;100090.72;10423059;28;20376;-80
2021/10/03 14:20:22;;;;;;;2.17;0.90;;;;;;;16.70;69.94;100099.09;10417743;28;20037;-82
2021/10/03 14:25:23;;;;;;;2.08;1.77;;;;;;;16.63;70.05;100101.22;10423575;28;20523;-84
2021/10/03 14:30:23;;;;;;;1.30;1.20;;;;;;;16.83;70.08;100138.91;10423524;28;20140;-82
2021/10/03 14:35:24;;;;;;;1.60;1.48;;;;;;;17.12;69.99;100147.66;10414943;28;20033;-81
2021/10/03 14:40:26;;;;;;;1.27;1.17;;;;;;;16.75;69.34;100090.94;10416690;28;20030;-82
2021/10/03 14:45:27;;;;;;;1.80;1.48;;;;;;;17.03;70.78;100165.63;10420602;28;20554;-81
2021/10/03 14:50:27;;;;;;;3.20;1.00;;;;;;;16.81;69.14;100171.13;10440018;28;20055;-81
2021/10/03 14:55:28;;;;;;;1.88;0.80;;;;;;;16.76;70.00;100162.88;10457366;28;20037;-81
2021/10/03 15:00:28;;;;;;;1.27;0.77;;;;;;;16.81;69.28;100158.28;10457472;28;20029;-82
2021/10/03 15:05:28;;;;;;;1.05;0.85;;;;;;;16.99;69.09;100200.88;10458135;28;20032;-82
2021/10/03 15:10:29;;;;;;;1.23;0.93;;;;;;;16.66;69.67;100149.91;10457160;28;20037;-82
2021/10/03 15:15:29;;;;;;;4.78;1.67;;;;;;;16.76;69.67;100223.88;10422186;28;20033;-82
2021/10/03 15:20:30;;;;;;;5.80;1.77;;;;;;;16.55;70.73;100238.31;10456265;28;20044;-82
2021/10/03 15:25:30;;;;;;;3.08;1.73;;;;;;;16.57;70.11;100247.91;10455597;28;20049;-82
2021/10/03 15:30:31;;;;;;;1.15;1.15;;;;;;;16.29;69.67;100281.69;10454865;28;20123;-81
2021/10/03 15:35:31;;;;;;;5.15;2.22;;;;;;;16.02;71.65;100298.75;10454679;28;20072;-81
2021/10/03 15:40:32;;;;;;;2.35;1.52;;;;;;;16.02;71.21;100315.16;10455877;28;20037;-82
2021/10/03 15:45:33;;;;;;;5.32;1.80;;;;;;;15.87;70.80;100300.41;10438395;28;20412;-82
2021/10/03 15:50:33;;;;;;;11.02;2.17;;;;;;;15.73;71.98;100338.94;10456939;28;20040;-82
2021/10/03 15:55:34;;;;;;;3.80;2.25;;;;;;;15.71;71.21;100329.34;10439196;28;20159;-81
2021/10/03 16:00:34;;;;;;;9.02;2.47;;;;;;;15.67;71.95;100344.56;10457187;28;20033;-81
2021/10/03 16:05:35;;;;;;;5.72;2.28;;;;;;;15.74;70.18;100351.50;10455624;28;20059;-82
2021/10/03 16:10:35;;;;;;;3.53;1.67;;;;;;;15.23;72.12;100339.59;10457283;28;20131;-82
2021/10/03 16:15:36;;;;;;;5.57;2.63;;;;;;;15.38;71.94;100365.50;10462117;28;20413;-82
2021/10/03 16:20:36;;;;;;;2.30;1.42;;;;;;;15.42;70.84;100369.41;10446098;28;20127;-81
2021/10/03 16:25:37;;;;;;;2.72;1.67;;;;;;;15.41;71.13;100393.16;10463813;28;20140;-82
2021/10/03 16:30:40;;;;;;;2.13;1.85;;;;;;;15.46;71.57;100406.88;10464999;28;20036;-82
2021/10/03 16:35:41;;;;;;;2.97;2.38;;;;;;;15.32;72.40;100367.31;10462652;28;20116;-81
2021/10/03 16:40:41;;;;;;;2.80;1.50;;;;;;;14.86;71.78;100344.53;10463971;28;20120;-81
2021/10/03 16:45:43;;;;;;;5.03;2.03;;;;;;;15.00;71.86;100405.91;10463634;28;20099;-81
2021/10/03 16:50:44;;;;;;;1.25;1.15;;;;;;;14.88;71.64;100391.47;10445343;28;20197;-82
2021/10/03 16:55:44;;;;;;;2.75;1.38;;;;;;;15.23;70.70;100472.41;10445774;28;20186;-82
2021/10/03 17:00:46;;;;;;;2.10;1.42;;;;;;;14.72;71.80;100468.50;10462829;28;20427;-81
2021/10/03 17:05:46;;;;;;;3.28;1.77;;;;;;;14.87;71.22;100499.69;10462866;28;20067;-82
2021/10/03 17:10:47;;;;;;;1.30;1.10;;;;;;;14.59;71.63;100484.00;10444905;28;20036;-82
2021/10/03 17:15:47;;;;;;;2.53;1.42;;;;;;;14.31;72.14;100462.81;10463117;28;20041;-82
2021/10/03 17:20:47;;;;;;;5.68;1.65;;;;;;;14.58;71.40;100500.56;10461212;28;20055;-82
2021/10/03 17:25:48;;;;;;;1.30;1.00;;;;;;;14.57;72.30;100510.66;10461379;28;20067;-82
2021/10/03 17:30:49;;;;;;;1.52;1.17;;;;;;;14.70;71.94;100525.13;10461682;28;20064;-82
2021/10/03 17:35:49;;;;;;;4.15;3.65;;;;;;;14.64;71.64;100565.91;10445096;28;20029;-82
2021/10/03 17:40:49;;;;;;;2.10;1.00;;;;;;;14.65;72.05;100561.28;10463044;28;20108;-82
2021/10/03 17:45:50;;;;;;;1.35;1.25;;;;;;;14.54;71.82;100538.34;10462467;28;20061;-81
2021/10/03 17:50:51;;;;;;;4.82;2.08;;;;;;;14.52;72.39;100573.19;10461293;28;20085;-82
2021/10/03 17:55:51;;;;;;;4.93;1.65;;;;;;;14.51;72.94;100578.88;10461049;28;20064;-82
2021/10/03 18:00:52;;;;;;;4.07;1.33;;;;;;;14.39;73.01;100570.63;10458772;28;20543;-82
2021/10/03 18:05:53;;;;;;;9.00;1.58;;;;;;;14.09;73.31;100551.53;10459781;28;20481;-82
2021/10/03 18:10:53;;;;;;;3.20;1.73;;;;;;;14.47;72.38;100613.06;10460115;28;20033;-81
2021/10/03 18:15:54;;;;;;;2.53;1.63;;;;;;;14.35;73.72;100627.44;10460188;28;20115;-81
2021/10/03 18:20:54;;;;;;;7.10;2.17;;;;;;;13.98;73.13;100534.09;10459263;28;20132;-81
2021/10/03 18:25:55;;;;;;;2.25;1.20;;;;;;;14.64;72.49;100614.94;10441550;28;20052;-82
2021/10/03 18:30:55;;;;;;;3.20;1.45;;;;;;;14.28;72.93;100620.44;10460835;28;20120;-81
2021/10/03 18:35:56;;;;;;;2.30;0.90;;;;;;;14.39;72.77;100634.13;10425939;28;20036;-82
2021/10/03 18:40:56;;;;;;;5.55;1.75;;;;;;;13.98;72.99;100585.81;10460613;28;20025;-81
2021/10/03 18:45:57;;;;;;;7.95;1.60;;;;;;;14.50;72.61;100665.19;10460724;28;20107;-82
2021/10/03 18:50:57;;;;;;;1.58;1.38;;;;;;;14.53;73.36;100678.41;10460241;28;20496;-82
2021/10/03 18:55:58;;;;;;;2.63;1.52;;;;;;;14.17;74.02;100690.13;10458202;28;20047;-81
2021/10/03 19:00:58;;;;;;;1.75;1.65;;;;;;;14.38;72.94;100699.72;10470450;28;20082;-82
2021/10/03 19:05:58;;;;;;;7.97;1.83;;;;;;;14.53;71.36;100727.44;10467187;28;20051;-82
2021/10/03 19:10:59;;;;;;;3.55;1.45;;;;;;;14.69;72.92;100720.53;10462127;28;20155;-82
2021/10/03 19:15:59;;;;;;;5.03;2.20;;;;;;;14.78;72.12;100726.53;10441414;28;20110;-82
2021/10/03 19:21:00;;;;;;;2.60;2.17;;;;;;;14.60;73.34;100752.72;10457177;28;20500;-82
2021/10/03 19:26:00;;;;;;;5.78;2.45;;;;;;;14.72;73.43;100760.13;10456770;28;20048;-82
2021/10/03 19:31:01;;;;;;;1.08;1.08;;;;;;;14.61;73.02;100759.00;10426023;28;20136;-82
2021/10/03 19:36:03;;;;;;;1.08;0.98;;;;;;;14.39;72.37;100753.16;10461276;28;20033;-82
2021/10/03 19:41:03;;;;;;;1.98;1.73;;;;;;;14.39;74.35;100786.69;10460049;28;20036;-82
2021/10/03 19:46:04;;;;;;;2.95;1.70;;;;;;;14.26;74.53;100791.41;10462367;28;20069;-82
2021/10/03 19:51:05;;;;;;;3.40;1.52;;;;;;;14.25;74.18;100789.75;10450844;28;20040;-82
2021/10/03 19:56:05;;;;;;;10.38;2.22;;;;;;;14.56;73.48;100786.09;10471681;28;20037;-82
2021/10/03 20:01:06;;;;;;;5.85;1.63;;;;;;;13.91;73.47;100696.66;10470429;28;20041;-82
2021/10/03 20:06:06;;;;;;;3.13;2.13;;;;;;;14.53;73.12;100806.47;10469875;28;20041;-82
2021/10/03 20:11:07;;;;;;;1.73;1.52;;;;;;;14.35;73.64;100800.94;10466796;28;20067;-82
2021/10/03 20:16:07;;;;;;;3.45;1.58;;;;;;;14.19;72.92;100770.50;10469717;28;20032;-83
2021/10/03 20:21:08;;;;;;;3.35;2.40;;;;;;;14.42;74.02;100835.25;10466328;28;20033;-82
2021/10/03 20:26:08;;;;;;;3.53;1.58;;;;;;;14.64;74.43;100849.34;10465347;28;20445;-82
2021/10/03 20:31:09;;;;;;;22.55;2.47;;;;;;;14.62;72.78;100861.50;10447535;28;20033;-82
2021/10/03 20:36:09;;;;;;;6.30;1.40;;;;;;;14.59;73.66;100868.25;10465187;28;20040;-82
2021/10/03 20:41:10;;;;;;;3.47;1.75;;;;;;;14.01;72.58;100795.00;10466530;28;20029;-82
2021/10/03 20:46:10;;;;;;;2.70;1.42;;;;;;;14.65;72.73;100872.78;10464853;28;20071;-82
2021/10/03 20:51:10;;;;;;;5.47;1.67;;;;;;;14.24;73.38;100828.94;10466400;28;20392;-82
2021/10/03 20:56:13;;;;;;;2.95;1.23;;;;;;;14.49;72.49;100862.44;10465113;28;20451;-82
2021/10/03 21:01:13;;;;;;;5.32;1.83;;;;;;;14.34;73.28;100881.03;10465050;28;20037;-82
2021/10/03 21:06:14;;;;;;;5.85;2.42;;;;;;;14.36;73.62;100884.38;10468195;28;20064;-81
2021/10/03 21:11:14;;;;;;;1.77;1.35;;;;;;;14.49;73.61;100899.75;10467299;28;20053;-82
2021/10/03 21:16:14;;;;;;;4.20;1.40;;;;;;;13.70;73.25;100806.75;10467525;28;20040;-82
2021/10/03 21:21:15;;;;;;;2.75;1.42;;;;;;;14.41;72.62;100888.06;10447586;28;20037;-81
2021/10/03 21:26:15;;;;;;;7.35;2.70;;;;;;;14.47;73.27;100907.31;10460879;28;20041;-82
2021/10/03 21:31:16;;;;;;;3.17;1.67;;;;;;;14.52;72.95;100897.44;10462471;28;20068;-82
2021/10/03 21:36:16;;;;;;;1.83;1.60;;;;;;;14.48;72.67;100898.06;10443293;28;20036;-81
2021/10/03 21:41:16;;;;;;;3.95;2.10;;;;;;;14.05;72.46;100828.88;10444649;28;20123;-81
2021/10/03 21:46:17;;;;;;;6.95;2.22;;;;;;;14.41;72.55;100903.59;10430646;28;20065;-82
2021/10/03 21:51:17;;;;;;;2.08;1.88;;;;;;;14.16;72.12;100847.22;10466240;28;20453;-82
2021/10/03 21:56:18;;;;;;;13.65;2.50;;;;;;;14.02;72.15;100862.00;10443221;28;20079;-82
2021/10/03 22:01:18;;;;;;;5.28;1.88;;;;;;;14.63;71.92;100917.69;10461654;28;20105;-81
2021/10/03 22:06:19;;;;;;;9.98;1.90;;;;;;;14.55;72.00;100926.97;10446232;28;20492;-82
2021/10/03 22:11:19;;;;;;;0.73;0.70;;;;;;;14.57;72.38;100929.47;10465585;28;20086;-82
2021/10/03 22:16:20;;;;;;;1.52;1.42;;;;;;;14.28;72.27;100939.09;10467448;28;20040;-82
2021/10/03 22:21:20;;;;;;;10.15;1.95;;;;;;;14.43;71.60;100912.38;10466659;28;20041;-82
2021/10/03 22:26:23;;;;;;;6.35;1.83;;;;;;;14.32;71.88;100926.72;10464404;28;20044;-82
2021/10/03 22:31:24;;;;;;;5.35;1.70;;;;;;;14.50;72.20;100951.28;10449342;28;20049;-82
2021/10/03 22:36:24;;;;;;;14.77;2.38;;;;;;;14.50;72.21;100975.81;10449621;28;20457;-82
2021/10/03 22:41:25;;;;;;;5.45;1.52;;;;;;;14.37;72.77;100978.66;10467357;28;20048;-81
2021/10/03 22:46:26;;;;;;;5.90;2.33;;;;;;;14.04;73.02;100968.81;10435794;28;20057;-82
2021/10/03 22:51:26;;;;;;;11.00;2.40;;;;;;;14.30;72.89;100977.88;10453220;28;20420;-82
2021/10/03 22:56:26;;;;;;;1.30;1.20;;;;;;;14.09;71.56;100943.63;10468954;28;20071;-82
2021/10/03 23:01:27;;;;;;;10.32;1.98;;;;;;;14.32;73.37;101003.81;10468609;28;20040;-81
2021/10/03 23:06:29;;;;;;;2.88;1.55;;;;;;;14.34;72.51;101004.44;10467934;28;20049;-82
2021/10/03 23:11:29;;;;;;;1.42;1.33;;;;;;;14.38;72.29;100999.38;10433949;28;20025;-82
2021/10/03 23:16:30;;;;;;;6.80;1.73;;;;;;;14.47;71.38;101005.41;10450368;28;20059;-82